Time;durP1;ratioP1;P1;durP2;ratioP2;P2;SDS_P1;SDS_P2;PMS_P1;PMS_P2;Temp;Humidity;BMP_temperature;BMP_pressure;BME280_temperature;BME280_humidity;BME280_pressure;Samples;Min_cycle;Max_cycle;Signal;HPM_P1;HPM_P2
2023/07/24 00:02:17;;;;;;;;;;;17.10;99.90;;;;;;4994655;28;19922;-42
2023/07/24 00:04:44;;;;;;;;;;;17.10;99.90;;;;;;4994383;28;19976;-42
2023/07/24 00:07:10;;;;;;;;;;;17.00;99.90;;;;;;4996238;28;19922;-42
2023/07/24 00:09:37;;;;;;;;;;;17.00;99.90;;;;;;4994418;28;20443;-42
2023/07/24 00:12:04;;;;;;;;;;;17.00;99.90;;;;;;4994816;28;19980;-42
2023/07/24 00:14:32;;;;;;;;;;;17.10;99.90;;;;;;4977605;28;19972;-42
2023/07/24 00:16:59;;;;;;;;;;;17.10;99.90;;;;;;4993863;28;19921;-42
2023/07/24 00:19:25;;;;;;;;;;;17.10;99.90;;;;;;4995472;28;19926;-42
2023/07/24 00:21:52;;;;;;;;;;;17.10;99.90;;;;;;4991790;28;19929;-42
2023/07/24 00:24:19;;;;;;;;;;;17.00;99.90;;;;;;4974066;28;19922;-43
2023/07/24 00:26:45;;;;;;;;;;;17.00;99.90;;;;;;4976220;28;19922;-43
2023/07/24 00:29:12;;;;;;;;;;;17.00;99.90;;;;;;4977048;28;19933;-42
2023/07/24 00:31:40;;;;;;;;;;;17.00;99.90;;;;;;4995488;28;19926;-42
2023/07/24 00:34:07;;;;;;;;;;;17.00;99.90;;;;;;4976700;28;19926;-43
2023/07/24 00:36:33;;;;;;;;;;;17.00;99.90;;;;;;4993155;28;19922;-42
2023/07/24 00:39:00;;;;;;;;;;;17.10;99.90;;;;;;4976990;28;20436;-42
2023/07/24 00:41:27;;;;;;;;;;;17.10;99.90;;;;;;4976531;28;19926;-41
2023/07/24 00:43:53;;;;;;;;;;;17.10;99.90;;;;;;4994908;28;19922;-43
2023/07/24 00:46:20;;;;;;;;;;;17.10;99.90;;;;;;4993704;28;20282;-42
2023/07/24 00:48:48;;;;;;;;;;;17.10;99.90;;;;;;4994060;28;19961;-42
2023/07/24 00:51:15;;;;;;;;;;;17.10;99.90;;;;;;4976509;28;19992;-42
2023/07/24 00:53:41;;;;;;;;;;;17.10;99.90;;;;;;4994657;28;19925;-43
2023/07/24 00:56:08;;;;;;;;;;;17.10;99.90;;;;;;4994845;28;19926;-42
2023/07/24 00:58:35;;;;;;;;;;;17.10;99.90;;;;;;4976059;28;19929;-42
2023/07/24 01:01:01;;;;;;;;;;;17.10;99.90;;;;;;4976654;28;19922;-42
2023/07/24 01:03:33;;;;;;;;;;;17.10;99.90;;;;;;4976689;28;19921;-42
2023/07/24 01:06:03;;;;;;;;;;;17.10;99.90;;;;;;4993602;28;19933;-42
2023/07/24 01:08:29;;;;;;;;;;;17.20;99.90;;;;;;4977674;28;19925;-42
2023/07/24 01:10:58;;;;;;;;;;;17.10;99.90;;;;;;4993605;28;19921;-42
2023/07/24 01:13:25;;;;;;;;;;;17.10;99.90;;;;;;4994694;28;20020;-42
2023/07/24 01:15:56;;;;;;;;;;;17.10;99.90;;;;;;4993378;28;19923;-42
2023/07/24 01:18:23;;;;;;;;;;;17.10;99.90;;;;;;4994915;28;19926;-42
2023/07/24 01:20:51;;;;;;;;;;;17.10;99.90;;;;;;4992641;28;20416;-42
2023/07/24 01:23:24;;;;;;;;;;;17.10;99.90;;;;;;4993963;28;19921;-41
2023/07/24 01:25:58;;;;;;;;;;;17.10;99.90;;;;;;4975010;28;19922;-42
2023/07/24 01:28:25;;;;;;;;;;;17.10;99.90;;;;;;4991018;28;20057;-42
2023/07/24 01:30:52;;;;;;;;;;;17.10;99.90;;;;;;4993348;28;19925;-42
2023/07/24 01:33:19;;;;;;;;;;;17.00;99.90;;;;;;4969819;28;20287;-42
2023/07/24 01:35:45;;;;;;;;;;;17.00;99.90;;;;;;4976495;28;19926;-41
2023/07/24 01:38:12;;;;;;;;;;;17.00;99.90;;;;;;4994409;28;19922;-41
2023/07/24 01:40:39;;;;;;;;;;;17.00;99.90;;;;;;4975688;28;19929;-42
2023/07/24 01:43:07;;;;;;;;;;;17.00;99.90;;;;;;4992621;28;19921;-41
2023/07/24 01:45:34;;;;;;;;;;;17.00;99.90;;;;;;4993142;28;19929;-41
2023/07/24 01:48:01;;;;;;;;;;;17.10;99.90;;;;;;4993592;28;19980;-41
2023/07/24 01:50:27;;;;;;;;;;;17.10;99.90;;;;;;4976479;28;19922;-42
2023/07/24 01:52:54;;;;;;;;;;;17.10;99.90;;;;;;4992564;28;20436;-42
2023/07/24 01:55:20;;;;;;;;;;;17.10;99.90;;;;;;4993194;28;20000;-42
2023/07/24 01:57:47;;;;;;;;;;;17.10;99.90;;;;;;4992038;28;19922;-42
2023/07/24 02:00:15;;;;;;;;;;;17.10;99.90;;;;;;4992457;28;20410;-42
2023/07/24 02:02:42;;;;;;;;;;;17.10;99.90;;;;;;4976551;28;19922;-41
2023/07/24 02:05:09;;;;;;;;;;;17.10;99.90;;;;;;4972463;28;19976;-42
2023/07/24 02:07:36;;;;;;;;;;;17.00;99.90;;;;;;4988591;28;19969;-42
2023/07/24 02:10:02;;;;;;;;;;;17.00;99.90;;;;;;4974506;28;19980;-41
2023/07/24 02:12:29;;;;;;;;;;;17.00;99.90;;;;;;4992401;28;20389;-41
2023/07/24 02:14:57;;;;;;;;;;;17.00;99.90;;;;;;4993043;28;19926;-41
2023/07/24 02:17:25;;;;;;;;;;;17.00;99.90;;;;;;4956997;28;19922;-42
2023/07/24 02:19:51;;;;;;;;;;;17.00;99.90;;;;;;4988784;28;20348;-41
2023/07/24 02:22:18;;;;;;;;;;;16.90;99.90;;;;;;4975183;28;20408;-41
2023/07/24 02:24:45;;;;;;;;;;;16.90;99.90;;;;;;4976021;28;19995;-42
2023/07/24 02:27:12;;;;;;;;;;;16.90;99.90;;;;;;4993530;28;19984;-42
2023/07/24 02:29:39;;;;;;;;;;;16.90;99.90;;;;;;4992319;28;20401;-42
2023/07/24 02:32:06;;;;;;;;;;;16.90;99.90;;;;;;4974882;28;20432;-42
2023/07/24 02:34:34;;;;;;;;;;;16.90;99.90;;;;;;4993430;28;19928;-41
2023/07/24 02:37:01;;;;;;;;;;;16.90;99.90;;;;;;4976218;28;19926;-41
2023/07/24 02:39:27;;;;;;;;;;;16.90;99.90;;;;;;4989677;28;19922;-42
2023/07/24 02:41:54;;;;;;;;;;;16.90;99.90;;;;;;4973421;28;20293;-41
2023/07/24 02:44:21;;;;;;;;;;;16.90;99.90;;;;;;4992966;28;19949;-41
2023/07/24 02:46:47;;;;;;;;;;;16.90;99.90;;;;;;4992450;28;19926;-42
2023/07/24 02:49:14;;;;;;;;;;;16.90;99.90;;;;;;4991488;28;20381;-41
2023/07/24 02:51:42;;;;;;;;;;;16.90;99.90;;;;;;4990952;28;19933;-42
2023/07/24 02:54:09;;;;;;;;;;;16.90;99.90;;;;;;4975722;28;19961;-41
2023/07/24 02:56:35;;;;;;;;;;;16.90;99.90;;;;;;4991780;28;19932;-42
2023/07/24 02:59:02;;;;;;;;;;;16.90;99.90;;;;;;4990907;28;19989;-42
2023/07/24 03:01:29;;;;;;;;;;;16.90;99.90;;;;;;4975040;28;20293;-42
2023/07/24 03:03:55;;;;;;;;;;;16.90;99.90;;;;;;4974953;28;19921;-42
2023/07/24 03:06:22;;;;;;;;;;;16.90;99.90;;;;;;4992650;28;19929;-42
2023/07/24 03:08:50;;;;;;;;;;;16.80;99.90;;;;;;4991642;28;19929;-42
2023/07/24 03:11:17;;;;;;;;;;;16.90;99.90;;;;;;4991570;28;19968;-42
2023/07/24 03:13:44;;;;;;;;;;;16.80;99.90;;;;;;4976792;28;19925;-42
2023/07/24 03:16:10;;;;;;;;;;;16.80;99.90;;;;;;4996265;28;20594;-42
2023/07/24 03:18:37;;;;;;;;;;;16.80;99.90;;;;;;4997098;28;19976;-42
2023/07/24 03:21:04;;;;;;;;;;;16.80;99.90;;;;;;4995551;28;19922;-42
2023/07/24 03:23:30;;;;;;;;;;;16.70;99.90;;;;;;4995566;28;19922;-42
2023/07/24 03:25:58;;;;;;;;;;;16.80;99.90;;;;;;4978264;28;19922;-41
2023/07/24 03:28:26;;;;;;;;;;;16.70;99.90;;;;;;4977887;28;20050;-42
2023/07/24 03:30:53;;;;;;;;;;;16.80;99.90;;;;;;4996828;28;19922;-42
2023/07/24 03:33:19;;;;;;;;;;;16.70;99.90;;;;;;4995157;28;19969;-42
2023/07/24 03:35:46;;;;;;;;;;;16.70;99.90;;;;;;4978567;28;19926;-42
2023/07/24 03:38:13;;;;;;;;;;;16.80;99.90;;;;;;4995103;28;19961;-42
2023/07/24 03:40:39;;;;;;;;;;;16.70;99.90;;;;;;4978103;28;19977;-42
2023/07/24 03:43:07;;;;;;;;;;;16.70;99.90;;;;;;4996259;28;19921;-42
2023/07/24 03:45:34;;;;;;;;;;;16.70;99.90;;;;;;4994456;28;19922;-41
2023/07/24 03:48:00;;;;;;;;;;;16.70;99.90;;;;;;4995013;28;19976;-41
2023/07/24 03:50:29;;;;;;;;;;;16.70;99.90;;;;;;4994852;28;20350;-42
2023/07/24 03:52:56;;;;;;;;;;;16.70;99.90;;;;;;4977551;28;19926;-41
2023/07/24 03:55:23;;;;;;;;;;;16.70;99.90;;;;;;4994901;28;20333;-42
2023/07/24 03:57:49;;;;;;;;;;;16.70;99.90;;;;;;4976646;28;19932;-42
2023/07/24 04:00:18;;;;;;;;;;;16.70;99.90;;;;;;4990289;28;19929;-42
2023/07/24 04:02:45;;;;;;;;;;;16.70;99.90;;;;;;4994584;28;19925;-42
2023/07/24 04:05:11;;;;;;;;;;;16.70;99.90;;;;;;4977600;28;19933;-42
2023/07/24 04:07:38;;;;;;;;;;;16.80;99.90;;;;;;4994508;28;20422;-42
2023/07/24 04:10:05;;;;;;;;;;;16.70;99.90;;;;;;4995961;28;19984;-41
2023/07/24 04:12:32;;;;;;;;;;;16.80;99.90;;;;;;4995003;28;20444;-42
2023/07/24 04:14:59;;;;;;;;;;;16.70;99.90;;;;;;4994800;28;20341;-42
2023/07/24 04:17:27;;;;;;;;;;;16.70;99.90;;;;;;4995330;28;19926;-41
2023/07/24 04:19:53;;;;;;;;;;;16.70;99.90;;;;;;4975240;28;20429;-42
2023/07/24 04:22:20;;;;;;;;;;;16.70;99.90;;;;;;4971540;28;19928;-42
2023/07/24 04:24:47;;;;;;;;;;;16.80;99.90;;;;;;4994241;28;19928;-41
2023/07/24 04:27:13;;;;;;;;;;;16.70;99.90;;;;;;4994172;28;19980;-41
2023/07/24 04:29:40;;;;;;;;;;;16.80;99.90;;;;;;4978008;28;19976;-42
2023/07/24 04:32:07;;;;;;;;;;;16.80;99.90;;;;;;4994831;28;19922;-41
2023/07/24 04:34:35;;;;;;;;;;;16.80;99.90;;;;;;4976923;28;20362;-42
2023/07/24 04:37:02;;;;;;;;;;;16.80;99.90;;;;;;4993789;28;20480;-42
2023/07/24 04:39:29;;;;;;;;;;;16.80;99.90;;;;;;4995104;28;19969;-41
2023/07/24 04:41:55;;;;;;;;;;;16.80;99.90;;;;;;4994282;28;19980;-41
2023/07/24 04:44:22;;;;;;;;;;;16.80;99.90;;;;;;4993948;28;19922;-42
2023/07/24 04:46:50;;;;;;;;;;;16.80;99.90;;;;;;4994772;28;20341;-42
2023/07/24 04:49:16;;;;;;;;;;;16.80;99.90;;;;;;4977924;28;20458;-42
2023/07/24 04:51:44;;;;;;;;;;;16.80;99.90;;;;;;4977516;28;19934;-42
2023/07/24 04:54:11;;;;;;;;;;;16.80;99.90;;;;;;4977594;28;19930;-42
2023/07/24 04:56:38;;;;;;;;;;;16.80;99.90;;;;;;4992241;28;19922;-42
2023/07/24 04:59:04;;;;;;;;;;;16.80;99.90;;;;;;4974794;28;19929;-42
2023/07/24 05:01:31;;;;;;;;;;;16.80;99.90;;;;;;4979884;28;19933;-42
2023/07/24 05:03:58;;;;;;;;;;;16.70;99.90;;;;;;4994656;28;19976;-43
2023/07/24 05:06:24;;;;;;;;;;;16.80;99.90;;;;;;4994931;28;20337;-42
2023/07/24 05:08:52;;;;;;;;;;;16.80;99.90;;;;;;4977737;28;19932;-43
2023/07/24 05:11:19;;;;;;;;;;;16.80;99.90;;;;;;4994267;28;19925;-42
2023/07/24 05:13:46;;;;;;;;;;;16.80;99.90;;;;;;4994082;28;19925;-42
2023/07/24 05:16:12;;;;;;;;;;;16.80;99.90;;;;;;4994899;28;19921;-42
2023/07/24 05:18:39;;;;;;;;;;;16.90;99.90;;;;;;4976821;28;19929;-42
2023/07/24 05:21:06;;;;;;;;;;;16.90;99.90;;;;;;4993115;28;19922;-43
2023/07/24 05:23:32;;;;;;;;;;;16.90;99.90;;;;;;4977125;28;20370;-42
2023/07/24 05:26:01;;;;;;;;;;;16.90;99.90;;;;;;4976496;28;20365;-41
2023/07/24 05:28:27;;;;;;;;;;;17.00;99.90;;;;;;4993055;28;19922;-43
2023/07/24 05:30:54;;;;;;;;;;;17.00;99.90;;;;;;4993482;28;20404;-43
2023/07/24 05:33:21;;;;;;;;;;;17.00;99.90;;;;;;4994257;28;19926;-42
2023/07/24 05:35:49;;;;;;;;;;;17.10;99.90;;;;;;4975568;28;19988;-43
2023/07/24 05:38:15;;;;;;;;;;;17.10;99.90;;;;;;4993172;28;20443;-42
2023/07/24 05:40:42;;;;;;;;;;;17.10;99.90;;;;;;4975490;28;19922;-42
2023/07/24 05:43:10;;;;;;;;;;;17.20;99.90;;;;;;4993385;28;19926;-42
2023/07/24 05:45:37;;;;;;;;;;;17.20;99.90;;;;;;4994655;28;19964;-43
2023/07/24 05:48:03;;;;;;;;;;;17.20;99.90;;;;;;4992292;28;19922;-43
2023/07/24 05:50:30;;;;;;;;;;;17.30;99.90;;;;;;4975547;28;19976;-42
2023/07/24 05:52:57;;;;;;;;;;;17.30;99.90;;;;;;4992901;28;19925;-43
2023/07/24 05:55:23;;;;;;;;;;;17.30;99.90;;;;;;4993958;28;19976;-43
2023/07/24 05:57:50;;;;;;;;;;;17.40;99.90;;;;;;4992377;28;20297;-43
2023/07/24 06:00:19;;;;;;;;;;;17.40;99.90;;;;;;4977027;28;19921;-42
2023/07/24 06:02:45;;;;;;;;;;;17.40;99.90;;;;;;4975864;28;19929;-43
2023/07/24 06:05:12;;;;;;;;;;;17.40;99.90;;;;;;4975733;28;19968;-42
2023/07/24 06:07:39;;;;;;;;;;;17.40;99.90;;;;;;4993539;28;19976;-43
2023/07/24 06:10:06;;;;;;;;;;;17.40;99.90;;;;;;4976581;28;19929;-42
2023/07/24 06:12:33;;;;;;;;;;;17.50;99.90;;;;;;4994022;28;19972;-43
2023/07/24 06:14:59;;;;;;;;;;;17.50;99.90;;;;;;4992050;28;20400;-43
2023/07/24 06:17:27;;;;;;;;;;;17.60;99.90;;;;;;4976448;28;19964;-43
2023/07/24 06:19:54;;;;;;;;;;;17.60;99.90;;;;;;4992198;28;20392;-43
2023/07/24 06:22:21;;;;;;;;;;;17.70;99.90;;;;;;4993442;28;19945;-42
2023/07/24 06:24:47;;;;;;;;;;;17.80;99.90;;;;;;4975092;28;19929;-43
2023/07/24 06:27:14;;;;;;;;;;;17.80;99.90;;;;;;4994040;28;19921;-43
2023/07/24 06:29:41;;;;;;;;;;;17.90;99.90;;;;;;4975744;28;19926;-41
2023/07/24 06:32:07;;;;;;;;;;;18.00;99.90;;;;;;4991722;28;19929;-42
2023/07/24 06:34:35;;;;;;;;;;;18.10;99.90;;;;;;4986366;28;19922;-42
2023/07/24 06:37:02;;;;;;;;;;;18.10;99.90;;;;;;4992543;28;20043;-42
2023/07/24 06:39:29;;;;;;;;;;;18.20;99.90;;;;;;4975448;28;19922;-42
2023/07/24 06:41:56;;;;;;;;;;;18.30;99.90;;;;;;4992676;28;19976;-42
2023/07/24 06:44:22;;;;;;;;;;;18.30;99.90;;;;;;4991624;28;20369;-43
2023/07/24 06:46:49;;;;;;;;;;;18.30;99.90;;;;;;4974653;28;19928;-43
2023/07/24 06:49:16;;;;;;;;;;;18.40;99.90;;;;;;4973742;28;19929;-43
2023/07/24 06:51:44;;;;;;;;;;;18.50;99.90;;;;;;4974286;28;19933;-42
2023/07/24 06:54:10;;;;;;;;;;;18.60;99.90;;;;;;4993216;28;19922;-42
2023/07/24 06:56:37;;;;;;;;;;;18.60;99.90;;;;;;4991147;28;19921;-42
2023/07/24 06:59:04;;;;;;;;;;;18.70;99.90;;;;;;4989495;28;19933;-42
2023/07/24 07:01:31;;;;;;;;;;;18.70;99.90;;;;;;4991384;28;19922;-42
2023/07/24 07:03:57;;;;;;;;;;;18.70;99.90;;;;;;4991120;28;20420;-42
2023/07/24 07:06:24;;;;;;;;;;;18.70;99.90;;;;;;4993158;28;19928;-43
2023/07/24 07:08:52;;;;;;;;;;;18.70;99.90;;;;;;4992365;28;19921;-43
2023/07/24 07:11:19;;;;;;;;;;;18.80;99.90;;;;;;4973835;28;20361;-42
2023/07/24 07:13:45;;;;;;;;;;;18.90;99.90;;;;;;4973881;28;19925;-43
2023/07/24 07:16:12;;;;;;;;;;;18.90;99.90;;;;;;4993233;28;19921;-43
2023/07/24 07:18:39;;;;;;;;;;;19.00;99.90;;;;;;4990720;28;20378;-42
2023/07/24 07:21:05;;;;;;;;;;;19.00;99.90;;;;;;4993049;28;19922;-43
2023/07/24 07:23:32;;;;;;;;;;;19.00;99.90;;;;;;4992805;28;19925;-43
2023/07/24 07:26:00;;;;;;;;;;;19.10;99.90;;;;;;4989508;28;19925;-43
2023/07/24 07:28:27;;;;;;;;;;;19.10;99.90;;;;;;4974412;28;20023;-42
2023/07/24 07:30:54;;;;;;;;;;;19.20;99.90;;;;;;4989355;28;19928;-41
2023/07/24 07:33:21;;;;;;;;;;;19.20;99.90;;;;;;4987992;28;19926;-43
2023/07/24 07:35:48;;;;;;;;;;;19.30;99.90;;;;;;4984411;28;19922;-42
2023/07/24 07:38:15;;;;;;;;;;;19.40;99.90;;;;;;4968030;28;20306;-42
2023/07/24 07:40:41;;;;;;;;;;;19.40;99.90;;;;;;4984569;28;19929;-43
2023/07/24 07:43:09;;;;;;;;;;;19.50;99.90;;;;;;4992626;28;19930;-43
2023/07/24 07:45:36;;;;;;;;;;;19.50;99.90;;;;;;4973336;28;19926;-43
2023/07/24 07:48:03;;;;;;;;;;;19.60;99.90;;;;;;4973202;28;19932;-42
2023/07/24 07:50:29;;;;;;;;;;;19.60;99.90;;;;;;4953974;28;19983;-43
2023/07/24 07:52:56;;;;;;;;;;;19.60;99.90;;;;;;4973344;28;20017;-42
2023/07/24 07:55:23;;;;;;;;;;;19.70;99.90;;;;;;4972200;28;19931;-43
2023/07/24 07:57:49;;;;;;;;;;;19.70;99.90;;;;;;4973226;28;20345;-43
2023/07/24 08:00:18;;;;;;;;;;;19.80;99.90;;;;;;4973734;28;20378;-42
2023/07/24 08:02:44;;;;;;;;;;;19.80;99.90;;;;;;4959395;28;19925;-42
2023/07/24 08:05:11;;;;;;;;;;;19.90;99.90;;;;;;4976854;28;19976;-42
2023/07/24 08:07:38;;;;;;;;;;;20.00;99.90;;;;;;4974816;28;20326;-43
2023/07/24 08:10:06;;;;;;;;;;;20.00;99.90;;;;;;4976869;28;19922;-43
2023/07/24 08:12:32;;;;;;;;;;;20.10;99.90;;;;;;4959358;28;19926;-41
2023/07/24 08:14:59;;;;;;;;;;;20.20;99.90;;;;;;4955024;28;19964;-43
2023/07/24 08:17:27;;;;;;;;;;;20.20;99.90;;;;;;4966257;28;19929;-43
2023/07/24 08:19:54;;;;;;;;;;;20.30;99.90;;;;;;4965717;28;19926;-42
2023/07/24 08:22:22;;;;;;;;;;;20.30;99.90;;;;;;4958793;28;19922;-43
2023/07/24 08:24:50;;;;;;;;;;;20.30;99.90;;;;;;4975778;28;20371;-43
2023/07/24 08:27:16;;;;;;;;;;;20.40;99.90;;;;;;4966458;28;19922;-44
2023/07/24 08:29:43;;;;;;;;;;;20.40;99.90;;;;;;4976335;28;19949;-44
2023/07/24 08:32:10;;;;;;;;;;;20.50;99.90;;;;;;4976242;28;19935;-43
2023/07/24 08:34:38;;;;;;;;;;;20.50;99.90;;;;;;4976310;28;19928;-42
2023/07/24 08:37:05;;;;;;;;;;;20.50;99.90;;;;;;4957477;28;19953;-43
2023/07/24 08:39:31;;;;;;;;;;;20.50;99.90;;;;;;4976312;28;19976;-43
2023/07/24 08:41:58;;;;;;;;;;;20.50;99.90;;;;;;4975634;28;19933;-43
2023/07/24 08:44:25;;;;;;;;;;;20.50;99.90;;;;;;4979561;28;19976;-43
2023/07/24 08:46:51;;;;;;;;;;;20.60;99.90;;;;;;4978199;28;19922;-42
2023/07/24 08:49:18;;;;;;;;;;;20.60;99.90;;;;;;4995328;28;19921;-43
2023/07/24 08:51:46;;;;;;;;;;;20.70;99.90;;;;;;4995118;28;19925;-43
2023/07/24 08:54:13;;;;;;;;;;;20.70;99.90;;;;;;4993825;28;19929;-43
2023/07/24 08:56:40;;;;;;;;;;;20.90;99.90;;;;;;4975990;28;19961;-43
2023/07/24 08:59:07;;;;;;;;;;;21.00;99.90;;;;;;4977949;28;20355;-43
2023/07/24 09:01:33;;;;;;;;;;;21.10;99.90;;;;;;4975975;28;19925;-43
2023/07/24 09:04:00;;;;;;;;;;;21.20;99.90;;;;;;4993455;28;20329;-43
2023/07/24 09:06:27;;;;;;;;;;;21.20;99.90;;;;;;4975459;28;19972;-43
2023/07/24 09:08:55;;;;;;;;;;;21.20;99.90;;;;;;4977702;28;20370;-44
2023/07/24 09:11:22;;;;;;;;;;;21.30;99.90;;;;;;4974878;28;19929;-43
2023/07/24 09:13:49;;;;;;;;;;;21.30;99.90;;;;;;4974660;28;19968;-43
2023/07/24 09:16:23;;;;;;;;;;;21.40;99.90;;;;;;4975245;28;19992;-43
2023/07/24 09:18:51;;;;;;;;;;;21.40;99.90;;;;;;4959242;28;20371;-43
2023/07/24 09:21:27;;;;;;;;;;;21.50;99.90;;;;;;4942979;28;19929;-43
2023/07/24 09:23:56;;;;;;;;;;;21.50;99.90;;;;;;4966311;28;19960;-44
2023/07/24 09:26:23;;;;;;;;;;;21.60;99.90;;;;;;4990883;28;19964;-43
2023/07/24 09:28:52;;;;;;;;;;;21.60;99.90;;;;;;4989581;28;19992;-43
2023/07/24 09:31:19;;;;;;;;;;;21.70;99.90;;;;;;4956745;28;19972;-43
2023/07/24 09:33:46;;;;;;;;;;;21.70;99.90;;;;;;4960560;28;19921;-44
2023/07/24 09:36:12;;;;;;;;;;;21.90;99.90;;;;;;4990402;28;19992;-43
2023/07/24 09:38:39;;;;;;;;;;;22.10;99.90;;;;;;4961151;28;19926;-43
2023/07/24 09:41:07;;;;;;;;;;;22.20;99.90;;;;;;4994411;28;19964;-44
2023/07/24 09:43:35;;;;;;;;;;;22.20;99.90;;;;;;4994231;28;20278;-43
2023/07/24 09:46:02;;;;;;;;;;;22.20;99.90;;;;;;4993982;28;19922;-43
2023/07/24 09:48:28;;;;;;;;;;;22.10;99.90;;;;;;4974775;28;19950;-43
2023/07/24 09:50:55;;;;;;;;;;;22.10;99.90;;;;;;4974947;28;19922;-43
2023/07/24 09:53:25;;;;;;;;;;;22.20;99.90;;;;;;4974480;28;19980;-43
2023/07/24 09:55:53;;;;;;;;;;;22.20;99.90;;;;;;4985177;28;20333;-43
2023/07/24 09:58:21;;;;;;;;;;;22.20;99.90;;;;;;4993862;28;20313;-43
2023/07/24 10:00:48;;;;;;;;;;;22.30;99.90;;;;;;4976733;28;19972;-44
2023/07/24 10:03:14;;;;;;;;;;;22.30;99.90;;;;;;4990565;28;20291;-43
2023/07/24 10:05:41;;;;;;;;;;;22.40;99.90;;;;;;4994003;28;19921;-43
2023/07/24 10:08:08;;;;;;;;;;;22.50;99.90;;;;;;4993543;28;19921;-43
2023/07/24 10:10:35;;;;;;;;;;;22.60;99.90;;;;;;4993878;28;19960;-44
2023/07/24 10:13:01;;;;;;;;;;;22.70;99.90;;;;;;4992726;28;20026;-41
2023/07/24 10:15:30;;;;;;;;;;;22.80;99.90;;;;;;4991815;28;20008;-41
2023/07/24 10:18:02;;;;;;;;;;;22.90;99.90;;;;;;4993584;28;19928;-41
2023/07/24 10:20:36;;;;;;;;;;;23.10;99.90;;;;;;4976297;28;19922;-41
2023/07/24 10:23:02;;;;;;;;;;;23.20;99.90;;;;;;4992399;28;19921;-41
2023/07/24 10:25:30;;;;;;;;;;;23.40;99.90;;;;;;4993368;28;20047;-42
2023/07/24 10:28:01;;;;;;;;;;;23.60;99.90;;;;;;4974459;28;19979;-44
2023/07/24 10:30:30;;;;;;;;;;;23.80;99.90;;;;;;4990833;28;20054;-42
2023/07/24 10:33:04;;;;;;;;;;;24.00;99.90;;;;;;4956872;28;20009;-41
2023/07/24 10:35:37;;;;;;;;;;;24.30;99.90;;;;;;4965425;28;19963;-41
2023/07/24 10:38:03;;;;;;;;;;;24.50;99.90;;;;;;4991551;28;19922;-41
2023/07/24 10:40:31;;;;;;;;;;;24.80;99.90;;;;;;4973771;28;19922;-42
2023/07/24 10:43:01;;;;;;;;;;;24.90;99.90;;;;;;4976671;28;19928;-42
2023/07/24 10:45:28;;;;;;;;;;;25.00;99.90;;;;;;4991530;28;19928;-41
2023/07/24 10:47:56;;;;;;;;;;;25.20;99.90;;;;;;4974144;28;20274;-42
2023/07/24 10:50:23;;;;;;;;;;;25.20;99.90;;;;;;4990766;28;20408;-42
2023/07/24 10:52:49;;;;;;;;;;;25.20;99.90;;;;;;4989972;28;19922;-42
2023/07/24 10:55:16;;;;;;;;;;;25.10;99.90;;;;;;4993117;28;19922;-42
2023/07/24 10:57:43;;;;;;;;;;;25.10;99.90;;;;;;4991966;28;20008;-42
2023/07/24 11:00:10;;;;;;;;;;;25.00;99.90;;;;;;4993102;28;19922;-41
2023/07/24 11:02:37;;;;;;;;;;;24.80;99.90;;;;;;4975847;28;19921;-42
2023/07/24 11:05:05;;;;;;;;;;;24.60;99.90;;;;;;4973536;28;20294;-42
2023/07/24 11:07:33;;;;;;;;;;;24.40;99.90;;;;;;4989311;28;19928;-42
2023/07/24 11:09:59;;;;;;;;;;;24.20;99.90;;;;;;4964209;28;20017;-42
2023/07/24 11:12:30;;;;;;;;;;;24.00;99.90;;;;;;4969504;28;19952;-41
2023/07/24 11:14:58;;;;;;;;;;;23.80;99.90;;;;;;4975667;28;19976;-42
2023/07/24 11:17:34;;;;;;;;;;;23.80;99.90;;;;;;4992108;28;20387;-41
2023/07/24 11:20:07;;;;;;;;;;;23.70;99.90;;;;;;4955494;28;20053;-42
2023/07/24 11:22:34;;;;;;;;;;;23.60;99.90;;;;;;4963840;28;19988;-41
2023/07/24 11:25:01;;;;;;;;;;;23.60;99.90;;;;;;4956081;28;19922;-41
2023/07/24 11:27:28;;;;;;;;;;;23.60;99.90;;;;;;4970867;28;19922;-42
2023/07/24 11:29:55;;;;;;;;;;;23.60;99.90;;;;;;4974056;28;20366;-42
2023/07/24 11:32:21;;;;;;;;;;;23.70;99.90;;;;;;4990899;28;20361;-42
2023/07/24 11:34:49;;;;;;;;;;;23.70;99.90;;;;;;4977126;28;20365;-41
2023/07/24 11:37:16;;;;;;;;;;;23.80;99.90;;;;;;4977807;28;20201;-42
2023/07/24 11:39:43;;;;;;;;;;;23.80;99.90;;;;;;4993396;28;20023;-42
2023/07/24 11:42:10;;;;;;;;;;;23.90;99.90;;;;;;4982319;28;20296;-42
2023/07/24 11:44:37;;;;;;;;;;;23.90;99.90;;;;;;4977018;28;19973;-41
2023/07/24 11:47:04;;;;;;;;;;;24.00;99.90;;;;;;4994900;28;19921;-42
2023/07/24 11:49:31;;;;;;;;;;;24.00;99.90;;;;;;4992286;28;19925;-42
2023/07/24 11:52:02;;;;;;;;;;;24.30;99.90;;;;;;4976341;28;19921;-41
2023/07/24 11:54:30;;;;;;;;;;;24.40;99.90;;;;;;4963132;28;19930;-42
2023/07/24 11:56:56;;;;;;;;;;;24.60;99.90;;;;;;4993420;28;19969;-41
2023/07/24 11:59:23;;;;;;;;;;;24.70;99.90;;;;;;4978969;28;20289;-42
2023/07/24 12:01:50;;;;;;;;;;;24.80;99.90;;;;;;4977060;28;20370;-42
2023/07/24 12:04:16;;;;;;;;;;;24.80;99.90;;;;;;4992057;28;20396;-41
2023/07/24 12:06:43;;;;;;;;;;;24.90;99.90;;;;;;4994446;28;19927;-41
2023/07/24 12:09:11;;;;;;;;;;;25.10;99.90;;;;;;4993370;28;20287;-41
2023/07/24 12:11:41;;;;;;;;;;;25.40;99.90;;;;;;4996080;28;20378;-42
2023/07/24 12:14:08;;;;;;;;;;;25.60;99.90;;;;;;4976934;28;19928;-41
2023/07/24 12:16:38;;;;;;;;;;;25.90;99.90;;;;;;4994099;28;20283;-42
2023/07/24 12:19:04;;;;;;;;;;;26.00;99.90;;;;;;4993236;28;20266;-43
2023/07/24 12:21:31;;;;;;;;;;;26.00;99.90;;;;;;4984092;28;20343;-42
2023/07/24 12:23:58;;;;;;;;;;;25.90;99.90;;;;;;4974738;28;20287;-43
2023/07/24 12:26:25;;;;;;;;;;;25.70;99.90;;;;;;4974177;28;19992;-43
2023/07/24 12:28:53;;;;;;;;;;;25.50;99.90;;;;;;4993644;28;19921;-43
2023/07/24 12:31:19;;;;;;;;;;;25.50;99.90;;;;;;4978246;28;20301;-43
2023/07/24 12:33:46;;;;;;;;;;;25.50;99.90;;;;;;4978146;28;19921;-43
2023/07/24 12:36:13;;;;;;;;;;;25.60;99.90;;;;;;4995228;28;19934;-43
2023/07/24 12:38:39;;;;;;;;;;;25.60;99.90;;;;;;4981950;28;19926;-43
2023/07/24 12:41:06;;;;;;;;;;;25.40;99.90;;;;;;4980404;28;19921;-43
2023/07/24 12:43:33;;;;;;;;;;;25.30;99.90;;;;;;4978319;28;20402;-43
2023/07/24 12:46:01;;;;;;;;;;;25.20;99.90;;;;;;4993922;28;20393;-43
2023/07/24 12:48:28;;;;;;;;;;;25.30;99.90;;;;;;4971917;28;19922;-42
2023/07/24 12:50:56;;;;;;;;;;;25.40;99.50;;;;;;4939393;29;19922;-43
2023/07/24 12:53:23;;;;;;;;;;;25.30;98.90;;;;;;4956444;29;19933;-43
2023/07/24 12:55:49;;;;;;;;;;;25.20;99.30;;;;;;4928554;29;19927;-43
2023/07/24 12:58:16;;;;;;;;;;;25.00;99.20;;;;;;4947785;28;19927;-42
2023/07/24 13:00:43;;;;;;;;;;;24.90;99.90;;;;;;4991324;28;20356;-43
2023/07/24 13:03:11;;;;;;;;;;;24.70;99.90;;;;;;4965957;28;19989;-43
2023/07/24 13:05:38;;;;;;;;;;;24.60;99.90;;;;;;4957686;28;19961;-42
2023/07/24 13:08:05;;;;;;;;;;;24.30;99.90;;;;;;4963233;28;20366;-42
2023/07/24 13:10:31;;;;;;;;;;;24.00;99.90;;;;;;4973563;28;19957;-42
2023/07/24 13:12:58;;;;;;;;;;;23.80;99.90;;;;;;4976449;28;20292;-42
2023/07/24 13:15:25;;;;;;;;;;;23.60;99.90;;;;;;4986533;28;19922;-43
2023/07/24 13:17:52;;;;;;;;;;;23.30;99.90;;;;;;4967671;28;19922;-43
2023/07/24 13:20:20;;;;;;;;;;;23.20;99.90;;;;;;4972114;28;19929;-43
2023/07/24 13:22:48;;;;;;;;;;;23.00;99.90;;;;;;4975673;28;19952;-42
2023/07/24 13:25:15;;;;;;;;;;;22.80;99.90;;;;;;4975060;28;20370;-43
2023/07/24 13:27:41;;;;;;;;;;;22.70;99.90;;;;;;4994594;28;19921;-42
2023/07/24 13:30:08;;;;;;;;;;;22.60;99.90;;;;;;4992327;28;19922;-43
2023/07/24 13:32:35;;;;;;;;;;;22.50;99.90;;;;;;4992613;28;19925;-43
2023/07/24 13:35:02;;;;;;;;;;;22.50;99.90;;;;;;4992357;28;19933;-42
2023/07/24 13:37:30;;;;;;;;;;;22.40;99.90;;;;;;4994268;28;19921;-42
2023/07/24 13:39:56;;;;;;;;;;;22.30;99.90;;;;;;4974866;28;19964;-43
2023/07/24 13:42:23;;;;;;;;;;;22.30;99.90;;;;;;4977261;28;19922;-42
2023/07/24 13:44:50;;;;;;;;;;;22.20;99.90;;;;;;4989089;28;19921;-42
2023/07/24 13:47:17;;;;;;;;;;;22.10;99.90;;;;;;4990497;28;19925;-42
2023/07/24 13:49:44;;;;;;;;;;;22.00;99.90;;;;;;4990782;28;19921;-42
2023/07/24 13:52:10;;;;;;;;;;;21.90;99.90;;;;;;4992845;28;19925;-43
2023/07/24 13:54:38;;;;;;;;;;;21.80;99.90;;;;;;4975983;28;20373;-42
2023/07/24 13:57:07;;;;;;;;;;;21.70;99.90;;;;;;4991959;28;19925;-43
2023/07/24 13:59:33;;;;;;;;;;;21.70;99.90;;;;;;4973755;28;19930;-42
2023/07/24 14:02:00;;;;;;;;;;;21.60;99.90;;;;;;4976496;28;19928;-43
2023/07/24 14:04:27;;;;;;;;;;;21.50;99.90;;;;;;4988784;28;20382;-42
2023/07/24 14:06:53;;;;;;;;;;;21.40;99.90;;;;;;4992735;28;19922;-42
2023/07/24 14:09:20;;;;;;;;;;;21.40;99.90;;;;;;4993973;28;20370;-41
2023/07/24 14:11:48;;;;;;;;;;;21.40;99.90;;;;;;4994050;28;20000;-42
2023/07/24 14:14:16;;;;;;;;;;;21.40;99.90;;;;;;4991759;28;19925;-43
2023/07/24 14:16:43;;;;;;;;;;;21.40;99.90;;;;;;4959039;28;19922;-42